sensor_id;sensor_type;location;lat;lon;timestamp;pressure;altitude;pressure_sealevel;temperature;humidity
72066;BME280;59939;52.516;13.420;2022-11-02T00:03:00;100859.81;;;14.25;69.84
72066;BME280;59939;52.516;13.420;2022-11-02T00:06:06;100868.88;;;14.43;68.89
72066;BME280;59939;52.516;13.420;2022-11-02T00:09:10;100867.91;;;14.30;69.58
72066;BME280;59939;52.516;13.420;2022-11-02T00:12:17;100871.28;;;14.35;69.44
72066;BME280;59939;52.516;13.420;2022-11-02T00:15:25;100862.91;;;14.15;69.82
72066;BME280;59939;52.516;13.420;2022-11-02T00:18:33;100879.34;;;13.77;71.05
72066;BME280;59939;52.516;13.420;2022-11-02T00:21:39;100872.19;;;14.01;69.95
72066;BME280;59939;52.516;13.420;2022-11-02T00:24:43;100878.50;;;14.11;69.23
72066;BME280;59939;52.516;13.420;2022-11-02T00:27:50;100873.41;;;14.47;67.96
72066;BME280;59939;52.516;13.420;2022-11-02T00:30:55;100867.91;;;14.30;68.02
72066;BME280;59939;52.516;13.420;2022-11-02T00:33:59;100865.56;;;13.59;70.71
72066;BME280;59939;52.516;13.420;2022-11-02T00:37:03;100867.00;;;14.00;69.08
72066;BME280;59939;52.516;13.420;2022-11-02T00:40:07;100875.44;;;13.95;68.97
72066;BME280;59939;52.516;13.420;2022-11-02T00:43:11;100876.59;;;13.94;69.35
72066;BME280;59939;52.516;13.420;2022-11-02T00:46:19;100880.81;;;13.83;68.94
72066;BME280;59939;52.516;13.420;2022-11-02T00:49:24;100875.44;;;13.78;68.59
72066;BME280;59939;52.516;13.420;2022-11-02T00:52:39;100873.81;;;13.94;68.35
72066;BME280;59939;52.516;13.420;2022-11-02T00:55:43;100868.31;;;13.59;69.19
72066;BME280;59939;52.516;13.420;2022-11-02T00:58:47;100881.59;;;13.49;69.30
72066;BME280;59939;52.516;13.420;2022-11-02T01:01:59;100875.63;;;13.73;68.58
72066;BME280;59939;52.516;13.420;2022-11-02T01:05:05;100876.25;;;13.95;67.10
72066;BME280;59939;52.516;13.420;2022-11-02T01:08:09;100865.19;;;13.18;69.38
72066;BME280;59939;52.516;13.420;2022-11-02T01:11:40;100871.22;;;13.54;67.83
72066;BME280;59939;52.516;13.420;2022-11-02T01:14:46;100866.69;;;13.76;66.83
72066;BME280;59939;52.516;13.420;2022-11-02T01:17:58;100867.00;;;13.39;68.57
72066;BME280;59939;52.516;13.420;2022-11-02T01:21:05;100865.78;;;12.97;69.45
72066;BME280;59939;52.516;13.420;2022-11-02T01:24:08;100874.47;;;13.39;68.03
72066;BME280;59939;52.516;13.420;2022-11-02T01:27:13;100874.00;;;12.89;69.96
72066;BME280;59939;52.516;13.420;2022-11-02T01:30:20;100873.53;;;13.04;68.85
72066;BME280;59939;52.516;13.420;2022-11-02T01:33:25;100864.91;;;13.54;66.98
72066;BME280;59939;52.516;13.420;2022-11-02T01:36:30;100875.25;;;13.22;67.95
72066;BME280;59939;52.516;13.420;2022-11-02T01:39:34;100873.47;;;13.26;67.54
72066;BME280;59939;52.516;13.420;2022-11-02T01:42:46;100875.56;;;13.21;67.38
72066;BME280;59939;52.516;13.420;2022-11-02T01:46:03;100855.66;;;13.41;66.38
72066;BME280;59939;52.516;13.420;2022-11-02T01:49:18;100849.94;;;13.20;67.17
72066;BME280;59939;52.516;13.420;2022-11-02T01:52:44;100846.88;;;13.22;66.20
72066;BME280;59939;52.516;13.420;2022-11-02T01:55:49;100845.28;;;13.47;66.08
72066;BME280;59939;52.516;13.420;2022-11-02T01:58:57;100848.75;;;12.95;67.63
72066;BME280;59939;52.516;13.420;2022-11-02T02:02:04;100849.06;;;12.85;68.03
72066;BME280;59939;52.516;13.420;2022-11-02T02:05:20;100853.03;;;13.19;65.58
72066;BME280;59939;52.516;13.420;2022-11-02T02:08:27;100842.13;;;13.05;66.45
72066;BME280;59939;52.516;13.420;2022-11-02T02:11:34;100838.94;;;13.29;65.93
72066;BME280;59939;52.516;13.420;2022-11-02T02:14:39;100852.50;;;13.08;65.64
72066;BME280;59939;52.516;13.420;2022-11-02T02:18:14;100850.03;;;12.89;66.13
72066;BME280;59939;52.516;13.420;2022-11-02T02:21:45;100842.38;;;12.78;66.90
72066;BME280;59939;52.516;13.420;2022-11-02T02:25:41;100845.47;;;12.76;66.93
72066;BME280;59939;52.516;13.420;2022-11-02T02:29:00;100842.22;;;12.74;66.48
72066;BME280;59939;52.516;13.420;2022-11-02T02:32:23;100834.59;;;12.71;67.14
72066;BME280;59939;52.516;13.420;2022-11-02T02:35:45;100830.16;;;12.53;67.03
72066;BME280;59939;52.516;13.420;2022-11-02T02:39:02;100830.69;;;12.63;66.71
72066;BME280;59939;52.516;13.420;2022-11-02T02:42:18;100840.31;;;12.44;66.80
72066;BME280;59939;52.516;13.420;2022-11-02T02:45:35;100837.19;;;12.76;65.07
72066;BME280;59939;52.516;13.420;2022-11-02T02:48:42;100832.97;;;12.70;65.75
72066;BME280;59939;52.516;13.420;2022-11-02T02:51:47;100831.03;;;12.70;65.58
72066;BME280;59939;52.516;13.420;2022-11-02T02:54:54;100826.47;;;12.66;65.65
72066;BME280;59939;52.516;13.420;2022-11-02T02:58:02;100833.31;;;12.37;66.55
72066;BME280;59939;52.516;13.420;2022-11-02T03:01:13;100831.69;;;12.05;67.33
72066;BME280;59939;52.516;13.420;2022-11-02T03:04:19;100835.88;;;12.34;66.43
72066;BME280;59939;52.516;13.420;2022-11-02T03:07:28;100830.53;;;12.29;66.04
72066;BME280;59939;52.516;13.420;2022-11-02T03:10:54;100827.59;;;12.65;65.31
72066;BME280;59939;52.516;13.420;2022-11-02T03:18:08;100819.25;;;12.39;65.95
72066;BME280;59939;52.516;13.420;2022-11-02T03:21:27;100823.00;;;11.90;67.67
72066;BME280;59939;52.516;13.420;2022-11-02T03:24:42;100817.13;;;11.83;67.35
72066;BME280;59939;52.516;13.420;2022-11-02T03:28:05;100824.38;;;12.01;66.87
72066;BME280;59939;52.516;13.420;2022-11-02T03:34:45;100827.34;;;12.13;66.09
72066;BME280;59939;52.516;13.420;2022-11-02T03:38:03;100829.34;;;12.21;66.20
72066;BME280;59939;52.516;13.420;2022-11-02T03:41:25;100826.56;;;11.90;66.94
72066;BME280;59939;52.516;13.420;2022-11-02T03:44:37;100823.69;;;11.51;68.16
72066;BME280;59939;52.516;13.420;2022-11-02T03:47:49;100841.59;;;11.70;67.69
72066;BME280;59939;52.516;13.420;2022-11-02T03:50:59;100837.22;;;11.47;68.67
72066;BME280;59939;52.516;13.420;2022-11-02T03:54:08;100832.94;;;11.19;69.79
72066;BME280;59939;52.516;13.420;2022-11-02T03:57:26;100826.63;;;11.18;69.61
72066;BME280;59939;52.516;13.420;2022-11-02T04:00:33;100830.06;;;11.60;67.67
72066;BME280;59939;52.516;13.420;2022-11-02T04:03:44;100832.34;;;11.44;68.12
72066;BME280;59939;52.516;13.420;2022-11-02T04:06:50;100820.00;;;11.77;66.91
72066;BME280;59939;52.516;13.420;2022-11-02T04:09:54;100825.88;;;11.62;66.99
72066;BME280;59939;52.516;13.420;2022-11-02T04:12:59;100822.13;;;11.58;67.55
72066;BME280;59939;52.516;13.420;2022-11-02T04:16:22;100837.19;;;11.61;67.32
72066;BME280;59939;52.516;13.420;2022-11-02T04:19:26;100814.09;;;11.70;66.39
72066;BME280;59939;52.516;13.420;2022-11-02T04:22:35;100815.38;;;11.42;67.42
72066;BME280;59939;52.516;13.420;2022-11-02T04:26:06;100823.38;;;11.52;67.04
72066;BME280;59939;52.516;13.420;2022-11-02T04:29:21;100816.50;;;11.41;67.47
72066;BME280;59939;52.516;13.420;2022-11-02T04:32:26;100814.88;;;11.40;67.19
72066;BME280;59939;52.516;13.420;2022-11-02T04:36:19;100823.25;;;11.21;68.20
72066;BME280;59939;52.516;13.420;2022-11-02T04:39:28;100828.03;;;11.29;67.39
72066;BME280;59939;52.516;13.420;2022-11-02T04:42:46;100826.97;;;11.39;67.42
72066;BME280;59939;52.516;13.420;2022-11-02T04:45:50;100823.06;;;11.54;66.92
72066;BME280;59939;52.516;13.420;2022-11-02T04:48:57;100824.88;;;11.81;65.57
72066;BME280;59939;52.516;13.420;2022-11-02T04:52:01;100832.22;;;11.71;65.70
72066;BME280;59939;52.516;13.420;2022-11-02T04:55:08;100834.00;;;11.67;65.34
72066;BME280;59939;52.516;13.420;2022-11-02T04:58:12;100824.69;;;11.19;67.73
72066;BME280;59939;52.516;13.420;2022-11-02T05:01:21;100823.91;;;11.40;66.79
72066;BME280;59939;52.516;13.420;2022-11-02T05:04:28;100816.44;;;11.77;65.51
72066;BME280;59939;52.516;13.420;2022-11-02T05:07:33;100823.84;;;11.32;66.99
72066;BME280;59939;52.516;13.420;2022-11-02T05:10:37;100818.34;;;11.76;65.33
72066;BME280;59939;52.516;13.420;2022-11-02T05:13:42;100835.91;;;11.08;67.89
72066;BME280;59939;52.516;13.420;2022-11-02T05:16:56;100825.50;;;11.55;66.11
72066;BME280;59939;52.516;13.420;2022-11-02T05:20:00;100835.97;;;11.31;66.47
72066;BME280;59939;52.516;13.420;2022-11-02T05:23:05;100823.16;;;11.71;66.06
72066;BME280;59939;52.516;13.420;2022-11-02T05:26:13;100820.16;;;11.36;66.47
72066;BME280;59939;52.516;13.420;2022-11-02T05:29:22;100839.19;;;11.33;67.14
72066;BME280;59939;52.516;13.420;2022-11-02T05:32:28;100818.25;;;11.59;65.86
72066;BME280;59939;52.516;13.420;2022-11-02T05:35:32;100824.38;;;11.20;67.05
72066;BME280;59939;52.516;13.420;2022-11-02T05:38:36;100821.47;;;11.39;65.97
72066;BME280;59939;52.516;13.420;2022-11-02T05:41:48;100823.38;;;11.16;66.93
72066;BME280;59939;52.516;13.420;2022-11-02T05:44:55;100825.03;;;11.03;68.00
72066;BME280;59939;52.516;13.420;2022-11-02T05:48:01;100836.13;;;10.98;67.72
72066;BME280;59939;52.516;13.420;2022-11-02T05:51:13;100850.97;;;10.97;68.06
72066;BME280;59939;52.516;13.420;2022-11-02T05:54:20;100824.13;;;10.94;67.88
72066;BME280;59939;52.516;13.420;2022-11-02T05:57:26;100823.31;;;10.94;68.10
72066;BME280;59939;52.516;13.420;2022-11-02T06:00:30;100819.66;;;10.98;68.11
72066;BME280;59939;52.516;13.420;2022-11-02T06:03:34;100828.59;;;10.90;67.69
72066;BME280;59939;52.516;13.420;2022-11-02T06:06:40;100822.50;;;10.93;67.69
72066;BME280;59939;52.516;13.420;2022-11-02T06:09:52;100834.06;;;11.18;67.27
72066;BME280;59939;52.516;13.420;2022-11-02T06:12:57;100835.59;;;10.96;67.55
72066;BME280;59939;52.516;13.420;2022-11-02T06:16:11;100833.88;;;11.00;67.59
72066;BME280;59939;52.516;13.420;2022-11-02T06:19:15;100831.03;;;11.05;67.13
72066;BME280;59939;52.516;13.420;2022-11-02T06:22:19;100828.28;;;11.05;67.67
72066;BME280;59939;52.516;13.420;2022-11-02T06:25:23;100836.13;;;10.98;67.76
72066;BME280;59939;52.516;13.420;2022-11-02T06:28:29;100833.31;;;11.62;65.52
72066;BME280;59939;52.516;13.420;2022-11-02T06:31:34;100823.63;;;11.87;64.31
72066;BME280;59939;52.516;13.420;2022-11-02T06:34:38;100828.44;;;12.03;63.36
72066;BME280;59939;52.516;13.420;2022-11-02T06:37:44;100838.84;;;12.15;62.51
72066;BME280;59939;52.516;13.420;2022-11-02T06:41:11;100854.59;;;12.23;62.77
72066;BME280;59939;52.516;13.420;2022-11-02T06:44:16;100844.72;;;12.22;62.87
72066;BME280;59939;52.516;13.420;2022-11-02T06:47:20;100847.78;;;12.91;60.61
72066;BME280;59939;52.516;13.420;2022-11-02T06:50:24;100855.91;;;12.57;60.99
72066;BME280;59939;52.516;13.420;2022-11-02T06:53:28;100861.50;;;12.83;59.96
72066;BME280;59939;52.516;13.420;2022-11-02T06:56:32;100857.75;;;13.27;58.79
72066;BME280;59939;52.516;13.420;2022-11-02T06:59:36;100864.16;;;12.57;61.51
72066;BME280;59939;52.516;13.420;2022-11-02T07:02:43;100847.88;;;12.38;61.77
72066;BME280;59939;52.516;13.420;2022-11-02T07:05:51;100863.41;;;13.22;59.28
72066;BME280;59939;52.516;13.420;2022-11-02T07:08:56;100854.25;;;14.33;56.02
72066;BME280;59939;52.516;13.420;2022-11-02T07:12:00;100858.91;;;13.60;58.29
72066;BME280;59939;52.516;13.420;2022-11-02T07:15:03;100869.59;;;12.39;62.04
72066;BME280;59939;52.516;13.420;2022-11-02T07:18:08;100852.00;;;11.96;63.94
72066;BME280;59939;52.516;13.420;2022-11-02T07:21:19;100855.03;;;12.17;63.14
72066;BME280;59939;52.516;13.420;2022-11-02T07:24:28;100849.34;;;13.49;58.43
72066;BME280;59939;52.516;13.420;2022-11-02T07:27:39;100863.94;;;13.67;57.54
72066;BME280;59939;52.516;13.420;2022-11-02T07:30:43;100856.94;;;14.59;55.37
72066;BME280;59939;52.516;13.420;2022-11-02T07:33:48;100860.06;;;14.49;55.01
72066;BME280;59939;52.516;13.420;2022-11-02T07:36:54;100868.63;;;14.01;56.58
72066;BME280;59939;52.516;13.420;2022-11-02T07:40:07;100853.22;;;15.23;53.26
72066;BME280;59939;52.516;13.420;2022-11-02T07:43:11;100859.28;;;15.37;53.41
72066;BME280;59939;52.516;13.420;2022-11-02T07:46:21;100861.97;;;15.25;53.02
72066;BME280;59939;52.516;13.420;2022-11-02T07:49:29;100869.53;;;15.99;51.06
72066;BME280;59939;52.516;13.420;2022-11-02T07:52:44;100861.88;;;15.63;51.77
72066;BME280;59939;52.516;13.420;2022-11-02T07:55:55;100857.84;;;15.10;52.97
72066;BME280;59939;52.516;13.420;2022-11-02T07:58:59;100851.34;;;15.56;52.57
72066;BME280;59939;52.516;13.420;2022-11-02T08:02:03;100867.72;;;16.48;50.69
72066;BME280;59939;52.516;13.420;2022-11-02T08:05:07;100870.50;;;15.61;51.86
72066;BME280;59939;52.516;13.420;2022-11-02T08:08:16;100847.97;;;15.72;51.51
72066;BME280;59939;52.516;13.420;2022-11-02T08:11:23;100880.44;;;14.74;54.06
72066;BME280;59939;52.516;13.420;2022-11-02T08:14:29;100866.56;;;14.36;56.40
72066;BME280;59939;52.516;13.420;2022-11-02T08:17:32;100878.47;;;14.28;56.53
72066;BME280;59939;52.516;13.420;2022-11-02T08:20:39;100858.34;;;14.27;57.03
72066;BME280;59939;52.516;13.420;2022-11-02T08:23:43;100858.66;;;15.11;55.63
72066;BME280;59939;52.516;13.420;2022-11-02T08:26:50;100854.75;;;15.12;54.44
72066;BME280;59939;52.516;13.420;2022-11-02T08:29:55;100870.63;;;14.38;56.59
72066;BME280;59939;52.516;13.420;2022-11-02T08:33:07;100867.06;;;14.38;56.88
72066;BME280;59939;52.516;13.420;2022-11-02T08:36:14;100896.84;;;13.46;59.61
72066;BME280;59939;52.516;13.420;2022-11-02T08:39:20;100881.78;;;13.61;59.50
72066;BME280;59939;52.516;13.420;2022-11-02T08:42:24;100880.28;;;14.15;58.82
72066;BME280;59939;52.516;13.420;2022-11-02T08:45:29;100882.09;;;13.59;59.95
72066;BME280;59939;52.516;13.420;2022-11-02T08:48:45;100869.28;;;13.89;59.50
72066;BME280;59939;52.516;13.420;2022-11-02T08:51:52;100871.50;;;14.22;58.77
72066;BME280;59939;52.516;13.420;2022-11-02T08:54:56;100873.97;;;14.06;58.88
72066;BME280;59939;52.516;13.420;2022-11-02T08:58:00;100873.50;;;13.87;59.76
72066;BME280;59939;52.516;13.420;2022-11-02T09:01:08;100883.94;;;14.54;57.56
72066;BME280;59939;52.516;13.420;2022-11-02T09:04:12;100875.00;;;14.95;56.41
72066;BME280;59939;52.516;13.420;2022-11-02T09:07:16;100884.91;;;14.41;58.48
72066;BME280;59939;52.516;13.420;2022-11-02T09:10:20;100883.09;;;15.92;52.80
72066;BME280;59939;52.516;13.420;2022-11-02T09:13:25;100872.25;;;15.45;54.45
72066;BME280;59939;52.516;13.420;2022-11-02T09:16:30;100866.06;;;15.69;53.84
72066;BME280;59939;52.516;13.420;2022-11-02T09:19:34;100869.78;;;15.23;54.96
72066;BME280;59939;52.516;13.420;2022-11-02T09:22:41;100875.97;;;17.18;50.18
72066;BME280;59939;52.516;13.420;2022-11-02T09:25:48;100879.81;;;16.44;51.74
72066;BME280;59939;52.516;13.420;2022-11-02T09:29:00;100887.31;;;16.76;50.55
72066;BME280;59939;52.516;13.420;2022-11-02T09:32:11;100872.59;;;18.17;47.41
72066;BME280;59939;52.516;13.420;2022-11-02T09:35:15;100887.00;;;17.67;47.77
72066;BME280;59939;52.516;13.420;2022-11-02T09:38:18;100879.34;;;17.76;48.57
72066;BME280;59939;52.516;13.420;2022-11-02T09:41:31;100880.56;;;18.18;47.02
72066;BME280;59939;52.516;13.420;2022-11-02T09:44:58;100872.81;;;17.44;48.66
72066;BME280;59939;52.516;13.420;2022-11-02T09:48:09;100877.88;;;18.38;46.93
72066;BME280;59939;52.516;13.420;2022-11-02T09:51:22;100873.78;;;17.76;48.07
72066;BME280;59939;52.516;13.420;2022-11-02T09:54:39;100886.19;;;17.66;48.33
72066;BME280;59939;52.516;13.420;2022-11-02T09:57:47;100881.59;;;17.98;47.24
72066;BME280;59939;52.516;13.420;2022-11-02T10:00:58;100884.69;;;18.40;46.24
72066;BME280;59939;52.516;13.420;2022-11-02T10:11:46;100893.69;;;18.49;44.12
72066;BME280;59939;52.516;13.420;2022-11-02T10:15:02;100905.19;;;18.20;45.16
72066;BME280;59939;52.516;13.420;2022-11-02T10:18:12;100884.69;;;17.69;46.21
72066;BME280;59939;52.516;13.420;2022-11-02T10:21:23;100911.25;;;18.10;45.21
72066;BME280;59939;52.516;13.420;2022-11-02T10:24:33;100895.56;;;18.45;44.93
72066;BME280;59939;52.516;13.420;2022-11-02T10:27:43;100884.22;;;18.98;42.84
72066;BME280;59939;52.516;13.420;2022-11-02T10:31:03;100871.41;;;18.93;42.51
72066;BME280;59939;52.516;13.420;2022-11-02T10:34:27;100877.22;;;19.04;42.79
72066;BME280;59939;52.516;13.420;2022-11-02T10:37:55;100887.63;;;19.07;43.06
72066;BME280;59939;52.516;13.420;2022-11-02T10:41:26;100879.13;;;19.89;41.35
72066;BME280;59939;52.516;13.420;2022-11-02T10:44:50;100878.66;;;20.45;40.19
72066;BME280;59939;52.516;13.420;2022-11-02T10:48:15;100886.69;;;18.55;43.49
72066;BME280;59939;52.516;13.420;2022-11-02T10:51:21;100883.19;;;19.21;42.58
72066;BME280;59939;52.516;13.420;2022-11-02T10:54:27;100881.06;;;19.15;41.95
72066;BME280;59939;52.516;13.420;2022-11-02T10:57:32;100882.69;;;19.16;42.07
72066;BME280;59939;52.516;13.420;2022-11-02T11:00:38;100875.34;;;18.92;41.96
72066;BME280;59939;52.516;13.420;2022-11-02T11:03:55;100889.25;;;18.33;43.06
72066;BME280;59939;52.516;13.420;2022-11-02T11:07:11;100888.59;;;18.23;43.19
72066;BME280;59939;52.516;13.420;2022-11-02T11:10:36;100874.59;;;19.11;41.46
72066;BME280;59939;52.516;13.420;2022-11-02T11:13:41;100903.91;;;19.40;40.82
72066;BME280;59939;52.516;13.420;2022-11-02T11:17:22;100900.72;;;18.75;42.43
72066;BME280;59939;52.516;13.420;2022-11-02T11:20:55;100947.09;;;17.87;43.72
72066;BME280;59939;52.516;13.420;2022-11-02T11:24:34;100929.09;;;17.69;44.94
72066;BME280;59939;52.516;13.420;2022-11-02T11:27:49;100914.06;;;17.70;45.18
72066;BME280;59939;52.516;13.420;2022-11-02T11:31:05;100907.88;;;16.87;46.51
72066;BME280;59939;52.516;13.420;2022-11-02T11:34:21;100910.56;;;16.63;47.48
72066;BME280;59939;52.516;13.420;2022-11-02T11:37:28;100920.31;;;16.81;47.19
72066;BME280;59939;52.516;13.420;2022-11-02T11:40:35;100919.38;;;17.02;47.22
72066;BME280;59939;52.516;13.420;2022-11-02T11:43:40;100906.31;;;16.66;47.16
72066;BME280;59939;52.516;13.420;2022-11-02T11:46:48;100920.66;;;16.80;47.31
72066;BME280;59939;52.516;13.420;2022-11-02T11:49:54;100913.72;;;16.98;46.65
72066;BME280;59939;52.516;13.420;2022-11-02T11:53:24;100898.25;;;16.73;47.26
72066;BME280;59939;52.516;13.420;2022-11-02T11:56:28;100906.53;;;16.27;48.21
72066;BME280;59939;52.516;13.420;2022-11-02T11:59:47;100911.25;;;16.60;47.79
72066;BME280;59939;52.516;13.420;2022-11-02T12:03:07;100886.66;;;16.13;47.45
72066;BME280;59939;52.516;13.420;2022-11-02T12:06:21;100913.50;;;16.79;46.80
72066;BME280;59939;52.516;13.420;2022-11-02T12:16:44;100927.75;;;16.23;48.10
72066;BME280;59939;52.516;13.420;2022-11-02T12:27:32;100896.06;;;19.10;42.43
72066;BME280;59939;52.516;13.420;2022-11-02T12:31:06;100895.53;;;17.74;44.49
72066;BME280;59939;52.516;13.420;2022-11-02T12:34:51;100892.94;;;17.04;45.27
72066;BME280;59939;52.516;13.420;2022-11-02T12:38:44;100886.34;;;17.21;44.96
72066;BME280;59939;52.516;13.420;2022-11-02T12:42:16;100902.31;;;18.16;42.28
72066;BME280;59939;52.516;13.420;2022-11-02T12:45:39;100881.81;;;18.80;38.62
72066;BME280;59939;52.516;13.420;2022-11-02T12:52:46;100898.13;;;19.48;36.17
72066;BME280;59939;52.516;13.420;2022-11-02T12:55:59;100906.28;;;18.90;36.19
72066;BME280;59939;52.516;13.420;2022-11-02T12:59:03;100903.13;;;19.23;34.89
72066;BME280;59939;52.516;13.420;2022-11-02T13:02:17;100913.91;;;18.62;36.44
72066;BME280;59939;52.516;13.420;2022-11-02T13:05:26;100912.31;;;19.78;34.51
72066;BME280;59939;52.516;13.420;2022-11-02T13:08:45;100964.50;;;18.83;35.22
72066;BME280;59939;52.516;13.420;2022-11-02T13:12:14;100932.00;;;18.72;35.20
72066;BME280;59939;52.516;13.420;2022-11-02T13:15:23;100899.66;;;20.19;33.21
72066;BME280;59939;52.516;13.420;2022-11-02T13:18:32;100884.31;;;18.10;33.98
72066;BME280;59939;52.516;13.420;2022-11-02T13:21:42;100904.88;;;18.53;33.92
72066;BME280;59939;52.516;13.420;2022-11-02T13:25:02;100909.09;;;18.47;34.42
72066;BME280;59939;52.516;13.420;2022-11-02T13:28:13;100939.59;;;18.59;34.52
72066;BME280;59939;52.516;13.420;2022-11-02T13:31:26;100900.75;;;18.03;36.50
72066;BME280;59939;52.516;13.420;2022-11-02T13:34:43;100904.81;;;17.53;37.19
72066;BME280;59939;52.516;13.420;2022-11-02T13:37:53;100940.66;;;18.11;36.69
72066;BME280;59939;52.516;13.420;2022-11-02T13:48:15;100917.19;;;18.24;37.08
72066;BME280;59939;52.516;13.420;2022-11-02T13:51:55;100912.41;;;18.52;36.43
72066;BME280;59939;52.516;13.420;2022-11-02T13:55:03;100918.91;;;18.29;36.71
72066;BME280;59939;52.516;13.420;2022-11-02T13:58:19;100903.75;;;18.26;37.12
72066;BME280;59939;52.516;13.420;2022-11-02T14:01:36;100904.75;;;18.18;37.62
72066;BME280;59939;52.516;13.420;2022-11-02T14:04:44;100922.84;;;18.27;37.39
72066;BME280;59939;52.516;13.420;2022-11-02T14:07:53;100929.19;;;18.28;37.04
72066;BME280;59939;52.516;13.420;2022-11-02T14:14:19;100922.81;;;17.59;39.29
72066;BME280;59939;52.516;13.420;2022-11-02T14:17:26;100934.75;;;17.48;39.32
72066;BME280;59939;52.516;13.420;2022-11-02T14:20:44;100916.25;;;16.91;40.67
72066;BME280;59939;52.516;13.420;2022-11-02T14:23:52;100938.81;;;17.14;40.45
72066;BME280;59939;52.516;13.420;2022-11-02T14:26:56;100936.72;;;16.86;41.17
72066;BME280;59939;52.516;13.420;2022-11-02T14:30:00;100936.03;;;17.14;40.88
72066;BME280;59939;52.516;13.420;2022-11-02T14:33:20;100945.03;;;17.23;40.47
72066;BME280;59939;52.516;13.420;2022-11-02T14:36:53;100944.34;;;16.89;41.17
72066;BME280;59939;52.516;13.420;2022-11-02T14:43:48;100952.91;;;17.70;39.81
72066;BME280;59939;52.516;13.420;2022-11-02T14:47:11;100956.59;;;16.88;41.07
72066;BME280;59939;52.516;13.420;2022-11-02T14:50:17;100966.16;;;17.03;40.68
72066;BME280;59939;52.516;13.420;2022-11-02T14:53:25;100963.28;;;16.87;39.09
72066;BME280;59939;52.516;13.420;2022-11-02T14:56:52;100955.09;;;17.03;39.24
72066;BME280;59939;52.516;13.420;2022-11-02T15:00:15;100955.09;;;17.03;38.28
72066;BME280;59939;52.516;13.420;2022-11-02T15:06:28;100982.28;;;16.65;37.80
72066;BME280;59939;52.516;13.420;2022-11-02T15:09:56;100985.69;;;16.61;38.66
72066;BME280;59939;52.516;13.420;2022-11-02T15:13:33;101002.78;;;16.63;38.20
72066;BME280;59939;52.516;13.420;2022-11-02T15:16:43;100985.31;;;16.72;38.38
72066;BME280;59939;52.516;13.420;2022-11-02T15:19:49;100993.16;;;16.49;38.37
72066;BME280;59939;52.516;13.420;2022-11-02T15:23:22;100994.53;;;16.43;38.92
72066;BME280;59939;52.516;13.420;2022-11-02T15:29:49;100995.47;;;16.05;39.71
72066;BME280;59939;52.516;13.420;2022-11-02T15:33:00;101001.84;;;16.06;39.94
72066;BME280;59939;52.516;13.420;2022-11-02T15:36:18;101002.44;;;16.11;39.56
72066;BME280;59939;52.516;13.420;2022-11-02T15:39:31;100999.66;;;16.11;39.56
72066;BME280;59939;52.516;13.420;2022-11-02T15:42:44;101003.13;;;16.08;40.04
72066;BME280;59939;52.516;13.420;2022-11-02T15:50:15;101019.63;;;15.75;40.66
72066;BME280;59939;52.516;13.420;2022-11-02T15:53:25;101032.91;;;15.82;40.99
72066;BME280;59939;52.516;13.420;2022-11-02T15:56:43;101019.31;;;15.97;40.69
72066;BME280;59939;52.516;13.420;2022-11-02T16:03:16;101033.41;;;15.84;40.88
72066;BME280;59939;52.516;13.420;2022-11-02T16:06:38;101031.63;;;15.58;41.48
72066;BME280;59939;52.516;13.420;2022-11-02T16:09:44;101040.66;;;15.68;41.47
72066;BME280;59939;52.516;13.420;2022-11-02T16:13:09;101037.75;;;16.14;40.50
72066;BME280;59939;52.516;13.420;2022-11-02T16:16:17;101031.19;;;15.98;41.09
72066;BME280;59939;52.516;13.420;2022-11-02T16:19:21;101030.81;;;15.79;41.77
72066;BME280;59939;52.516;13.420;2022-11-02T16:22:25;101030.72;;;15.66;41.36
72066;BME280;59939;52.516;13.420;2022-11-02T16:25:59;101039.13;;;15.49;41.47
72066;BME280;59939;52.516;13.420;2022-11-02T16:29:22;101048.84;;;15.55;41.45
72066;BME280;59939;52.516;13.420;2022-11-02T16:32:37;101058.13;;;15.59;41.46
72066;BME280;59939;52.516;13.420;2022-11-02T16:35:41;101073.34;;;15.27;42.28
72066;BME280;59939;52.516;13.420;2022-11-02T16:42:37;101051.72;;;15.29;42.14
72066;BME280;59939;52.516;13.420;2022-11-02T16:45:41;101075.97;;;15.24;42.31
72066;BME280;59939;52.516;13.420;2022-11-02T16:49:11;101053.97;;;15.36;42.27
72066;BME280;59939;52.516;13.420;2022-11-02T16:55:35;101071.63;;;14.97;43.06
72066;BME280;59939;52.516;13.420;2022-11-02T16:58:49;101077.88;;;15.32;42.09
72066;BME280;59939;52.516;13.420;2022-11-02T17:01:59;101078.13;;;15.10;42.35
72066;BME280;59939;52.516;13.420;2022-11-02T17:05:22;101078.91;;;15.19;42.34
72066;BME280;59939;52.516;13.420;2022-11-02T17:08:32;101091.00;;;14.88;42.97
72066;BME280;59939;52.516;13.420;2022-11-02T17:11:40;101088.69;;;15.08;42.65
72066;BME280;59939;52.516;13.420;2022-11-02T17:14:52;101081.56;;;14.89;43.05
72066;BME280;59939;52.516;13.420;2022-11-02T17:21:27;101089.03;;;14.89;43.33
72066;BME280;59939;52.516;13.420;2022-11-02T17:24:32;101102.66;;;15.02;42.90
72066;BME280;59939;52.516;13.420;2022-11-02T17:27:39;101100.91;;;14.81;43.03
72066;BME280;59939;52.516;13.420;2022-11-02T17:30:45;101086.59;;;14.87;43.52
72066;BME280;59939;52.516;13.420;2022-11-02T17:33:51;101104.31;;;14.52;43.86
72066;BME280;59939;52.516;13.420;2022-11-02T17:37:01;101103.34;;;14.48;43.90
72066;BME280;59939;52.516;13.420;2022-11-02T17:40:11;101095.72;;;14.62;43.67
72066;BME280;59939;52.516;13.420;2022-11-02T17:43:15;101109.34;;;14.50;44.07